createdAt,value
2024-02-13T00:00:57.748Z,3.82
2024-02-13T00:01:57.698Z,3.81
2024-02-13T00:02:57.814Z,3.80
2024-02-13T00:03:57.730Z,3.80
2024-02-13T00:04:57.694Z,3.81
2024-02-13T00:05:57.673Z,3.82
2024-02-13T00:06:57.670Z,3.84
2024-02-13T00:07:57.679Z,3.84
2024-02-13T00:08:57.703Z,3.84
2024-02-13T00:09:57.608Z,3.81
2024-02-13T00:10:57.615Z,3.77
2024-02-13T00:11:57.623Z,3.74
2024-02-13T00:12:57.585Z,3.70
2024-02-13T00:13:57.561Z,3.67
2024-02-13T00:14:57.635Z,3.64
2024-02-13T00:15:57.544Z,3.63
2024-02-13T00:16:57.550Z,3.60
2024-02-13T00:17:57.608Z,3.57
2024-02-13T00:18:57.548Z,3.53
2024-02-13T00:19:57.497Z,3.53
2024-02-13T00:20:57.524Z,3.50
2024-02-13T00:21:57.493Z,3.49
2024-02-13T00:22:57.500Z,3.50
2024-02-13T00:23:57.535Z,3.50
2024-02-13T00:24:57.465Z,3.46
2024-02-13T00:25:57.457Z,3.45
2024-02-13T00:26:57.468Z,3.42
2024-02-13T00:27:57.413Z,3.39
2024-02-13T00:28:57.406Z,3.39
2024-02-13T00:29:57.411Z,3.33
2024-02-13T00:30:57.408Z,3.30
2024-02-13T00:31:57.366Z,3.28
2024-02-13T00:32:57.517Z,3.25
2024-02-13T00:33:57.418Z,3.25
2024-02-13T00:34:57.357Z,3.22
2024-02-13T00:35:57.368Z,3.25
2024-02-13T00:36:57.316Z,3.30
2024-02-13T00:37:57.314Z,3.28
2024-02-13T00:38:57.310Z,3.28
2024-02-13T00:39:57.308Z,3.26
2024-02-13T00:40:57.279Z,3.20
2024-02-13T00:41:57.345Z,3.17
2024-02-13T00:42:57.254Z,3.15
2024-02-13T00:43:57.254Z,3.13
2024-02-13T00:44:57.323Z,3.10
2024-02-13T00:45:57.215Z,3.15
2024-02-13T00:46:57.227Z,3.13
2024-02-13T00:47:57.265Z,3.12
2024-02-13T00:48:57.524Z,3.13
2024-02-13T00:49:57.173Z,3.15
2024-02-13T00:50:57.285Z,3.15
2024-02-13T00:51:57.171Z,3.12
2024-02-13T00:52:57.152Z,3.04
2024-02-13T00:53:57.206Z,3.01
2024-02-13T00:54:57.236Z,3.02
2024-02-13T00:55:57.125Z,2.99
2024-02-13T00:56:57.188Z,2.97
2024-02-13T00:57:57.108Z,2.97
2024-02-13T00:58:57.118Z,2.95
2024-02-13T00:59:57.099Z,2.97
2024-02-13T01:00:57.105Z,2.94
2024-02-13T01:01:57.054Z,2.97
2024-02-13T01:02:57.124Z,2.99
2024-02-13T01:03:57.038Z,2.99
2024-02-13T01:04:57.014Z,3.01
2024-02-13T01:05:57.029Z,3.01
2024-02-13T01:06:57.194Z,3.05
2024-02-13T01:07:56.997Z,3.05
2024-02-13T01:08:56.992Z,3.04
2024-02-13T01:09:56.961Z,3.01
2024-02-13T01:10:56.948Z,2.99
2024-02-13T01:11:57.013Z,3.01
2024-02-13T01:12:56.939Z,2.99
2024-02-13T01:13:56.923Z,2.99
2024-02-13T01:14:56.946Z,3.01
2024-02-13T01:15:56.902Z,3.02
2024-02-13T01:16:56.897Z,3.05
2024-02-13T01:17:56.974Z,3.05
2024-02-13T01:18:56.971Z,3.02
2024-02-13T01:19:56.874Z,2.98
2024-02-13T01:20:56.875Z,3.01
2024-02-13T01:21:56.859Z,2.99
2024-02-13T01:22:56.820Z,3.04
2024-02-13T01:23:56.882Z,3.01
2024-02-13T01:24:56.812Z,2.99
2024-02-13T01:25:56.801Z,2.98
2024-02-13T01:26:56.841Z,2.98
2024-02-13T01:27:56.771Z,2.98
2024-02-13T01:28:56.771Z,2.98
2024-02-13T01:29:56.798Z,2.95
2024-02-13T01:30:56.743Z,2.98
2024-02-13T01:31:56.728Z,2.97
2024-02-13T01:32:56.915Z,2.97
2024-02-13T01:33:56.846Z,2.95
2024-02-13T01:34:56.718Z,2.94
2024-02-13T01:35:56.753Z,2.94
2024-02-13T01:36:56.671Z,2.97
2024-02-13T01:37:56.678Z,2.97
2024-02-13T01:38:56.704Z,2.97
2024-02-13T01:39:56.654Z,2.98
2024-02-13T01:40:56.642Z,2.99
2024-02-13T01:41:56.674Z,2.99
2024-02-13T01:42:56.606Z,3.02
2024-02-13T01:43:56.615Z,2.98
2024-02-13T01:44:56.622Z,2.95
2024-02-13T01:45:56.575Z,2.95
2024-02-13T01:46:56.564Z,2.95
2024-02-13T01:47:56.700Z,2.92
2024-02-13T01:48:56.617Z,2.89
2024-02-13T01:49:56.544Z,2.92
2024-02-13T01:50:56.547Z,2.97
2024-02-13T01:51:56.517Z,2.98
2024-02-13T01:52:56.493Z,2.98
2024-02-13T01:53:56.576Z,2.97
2024-02-13T01:54:56.473Z,2.97
2024-02-13T01:55:56.478Z,2.97
2024-02-13T01:56:56.495Z,2.97
2024-02-13T01:57:56.454Z,2.97
2024-02-13T01:58:56.449Z,2.97
2024-02-13T01:59:56.472Z,2.97
2024-02-13T02:00:56.441Z,2.98
2024-02-13T02:01:56.403Z,2.98
2024-02-13T02:02:56.440Z,2.99
2024-02-13T02:03:56.466Z,2.99
2024-02-13T02:04:56.366Z,2.98
2024-02-13T02:05:56.463Z,2.97
2024-02-13T02:06:56.389Z,2.94
2024-02-13T02:07:56.350Z,2.92
2024-02-13T02:08:56.424Z,2.90
2024-02-13T02:09:56.322Z,2.86
2024-02-13T02:10:56.298Z,2.89
2024-02-13T02:11:56.395Z,2.90
2024-02-13T02:12:56.294Z,2.89
2024-02-13T02:13:56.282Z,2.87
2024-02-13T02:14:56.312Z,2.86
2024-02-13T02:15:56.295Z,2.84
2024-02-13T02:16:56.243Z,2.83
2024-02-13T02:17:56.426Z,2.81
2024-02-13T02:18:56.332Z,2.80
2024-02-13T02:19:56.201Z,2.79
2024-02-13T02:20:56.317Z,2.81
2024-02-13T02:21:56.200Z,2.83
2024-02-13T02:22:56.181Z,2.81
2024-02-13T02:23:56.260Z,2.81
2024-02-13T02:24:56.176Z,2.83
2024-02-13T02:25:56.143Z,2.84
2024-02-13T02:26:56.169Z,2.84
2024-02-13T02:27:56.117Z,2.81
2024-02-13T02:28:56.127Z,2.84
2024-02-13T02:29:56.146Z,2.86
2024-02-13T02:30:56.106Z,2.83
2024-02-13T02:31:56.081Z,2.84
2024-02-13T02:32:56.144Z,2.86
2024-02-13T02:33:56.112Z,2.84
2024-02-13T02:34:56.096Z,2.84
2024-02-13T02:35:56.123Z,2.83
2024-02-13T02:36:56.032Z,2.83
2024-02-13T02:37:56.018Z,2.81
2024-02-13T02:38:56.071Z,2.80
2024-02-13T02:39:55.985Z,2.80
2024-02-13T02:40:55.994Z,2.83
2024-02-13T02:41:56.027Z,2.90
2024-02-13T02:42:55.971Z,2.92
2024-02-13T02:43:55.965Z,2.92
2024-02-13T02:44:55.980Z,2.92
2024-02-13T02:45:55.934Z,2.92
2024-02-13T02:46:55.926Z,2.90
2024-02-13T02:47:55.955Z,2.92
2024-02-13T02:48:55.985Z,2.95
2024-02-13T02:49:55.891Z,2.99
2024-02-13T02:50:55.945Z,2.98
2024-02-13T02:51:55.855Z,2.95
2024-02-13T02:52:55.849Z,2.95
2024-02-13T02:53:55.890Z,2.98
2024-02-13T02:54:55.833Z,2.98
2024-02-13T02:55:55.892Z,2.99
2024-02-13T02:56:55.889Z,3.01
2024-02-13T02:57:55.785Z,2.99
2024-02-13T02:58:55.806Z,3.01
2024-02-13T02:59:55.818Z,3.01
2024-02-13T03:00:55.858Z,2.98
2024-02-13T03:01:55.762Z,2.98
2024-02-13T03:02:55.962Z,2.97
2024-02-13T03:03:55.812Z,2.99
2024-02-13T03:04:55.718Z,3.02
2024-02-13T03:05:55.764Z,3.05
2024-02-13T03:06:55.724Z,3.16
2024-02-13T03:07:55.704Z,3.17
2024-02-13T03:08:55.733Z,3.25
2024-02-13T03:09:55.719Z,3.33
2024-02-13T03:10:55.649Z,3.35
2024-02-13T03:11:55.696Z,3.33
2024-02-13T03:12:55.644Z,3.34
2024-02-13T03:13:55.610Z,3.34
2024-02-13T03:14:55.646Z,3.37
2024-02-13T03:15:55.589Z,3.35
2024-02-13T03:16:55.588Z,3.35
2024-02-13T03:17:55.708Z,3.34
2024-02-13T03:18:55.602Z,3.34
2024-02-13T03:19:55.546Z,3.31
2024-02-13T03:20:55.602Z,3.26
2024-02-13T03:21:55.547Z,3.22
2024-02-13T03:22:55.540Z,3.19
2024-02-13T03:23:55.539Z,3.13
2024-02-13T03:24:55.496Z,3.10
2024-02-13T03:25:55.487Z,3.07
2024-02-13T03:26:55.516Z,3.05
2024-02-13T03:27:55.480Z,3.05
2024-02-13T03:28:55.487Z,3.07
2024-02-13T03:29:55.467Z,3.10
2024-02-13T03:30:55.448Z,3.13
2024-02-13T03:31:55.432Z,3.13
2024-02-13T03:32:55.611Z,3.12
2024-02-13T03:33:55.568Z,3.12
2024-02-13T03:34:55.398Z,3.13
2024-02-13T03:35:55.434Z,3.15
2024-02-13T03:36:55.381Z,3.15
2024-02-13T03:37:55.369Z,3.15
2024-02-13T03:38:55.378Z,3.16
2024-02-13T03:39:55.334Z,3.16
2024-02-13T03:40:55.348Z,3.19
2024-02-13T03:41:55.323Z,3.20
2024-02-13T03:42:55.304Z,3.20
2024-02-13T03:43:55.288Z,3.16
2024-02-13T03:44:55.314Z,3.16
2024-02-13T03:45:55.280Z,3.16
2024-02-13T03:46:55.265Z,3.16
2024-02-13T03:47:55.285Z,3.16
2024-02-13T03:48:55.291Z,3.15
2024-02-13T03:49:55.254Z,3.13
2024-02-13T03:50:55.263Z,3.15
2024-02-13T03:51:55.214Z,3.13
2024-02-13T03:52:55.207Z,3.10
2024-02-13T03:53:55.199Z,3.12
2024-02-13T03:54:55.192Z,3.10
2024-02-13T03:55:55.159Z,3.10
2024-02-13T03:56:55.169Z,3.13
2024-02-13T03:57:55.143Z,3.16
2024-02-13T03:58:55.137Z,3.13
2024-02-13T03:59:55.223Z,3.13
2024-02-13T04:00:55.136Z,3.13
2024-02-13T04:01:55.101Z,3.16
2024-02-13T04:02:55.105Z,3.13
2024-02-13T04:03:55.117Z,3.12
2024-02-13T04:04:55.071Z,3.08
2024-02-13T04:05:55.174Z,3.07
2024-02-13T04:06:55.139Z,3.08
2024-02-13T04:07:55.047Z,3.10
2024-02-13T04:08:55.061Z,3.10
2024-02-13T04:09:55.019Z,3.12
2024-02-13T04:10:55.001Z,3.13
2024-02-13T04:11:55.030Z,3.12
2024-02-13T04:12:54.988Z,3.10
2024-02-13T04:13:54.997Z,3.08
2024-02-13T04:14:55.078Z,3.10
2024-02-13T04:15:56.775Z,3.08
2024-02-13T04:16:54.938Z,3.08
2024-02-13T04:17:55.026Z,3.04
2024-02-13T04:18:55.111Z,3.02
2024-02-13T04:19:54.930Z,3.05
2024-02-13T04:20:54.986Z,3.02
2024-02-13T04:21:54.896Z,3.05
2024-02-13T04:22:54.885Z,3.05
2024-02-13T04:23:54.911Z,3.08
2024-02-13T04:24:54.864Z,3.07
2024-02-13T04:25:54.847Z,3.05
2024-02-13T04:26:54.862Z,3.07
2024-02-13T04:27:54.827Z,3.04
2024-02-13T04:28:54.818Z,3.05
2024-02-13T04:29:54.897Z,3.05
2024-02-13T04:30:54.792Z,3.05
2024-02-13T04:31:54.784Z,3.02
2024-02-13T04:32:55.018Z,2.99
2024-02-13T04:33:54.925Z,2.99
2024-02-13T04:34:54.823Z,2.99
2024-02-13T04:35:54.846Z,3.01
2024-02-13T04:36:54.742Z,3.04
2024-02-13T04:37:54.713Z,3.04
2024-02-13T04:38:54.746Z,3.05
2024-02-13T04:39:54.697Z,3.05
2024-02-13T04:40:54.682Z,3.05
2024-02-13T04:41:54.714Z,3.05
2024-02-13T04:42:54.657Z,3.07
2024-02-13T04:43:54.647Z,3.05
2024-02-13T04:44:54.645Z,3.05
2024-02-13T04:45:54.653Z,3.05
2024-02-13T04:46:54.640Z,3.04
2024-02-13T04:47:54.736Z,3.04
2024-02-13T04:48:55.079Z,3.02
2024-02-13T04:49:54.600Z,3.04
2024-02-13T04:50:54.592Z,3.01
2024-02-13T04:51:54.565Z,3.01
2024-02-13T04:52:54.546Z,3.02
2024-02-13T04:53:54.579Z,3.02
2024-02-13T04:54:54.527Z,3.01
2024-02-13T04:55:54.530Z,3.01
2024-02-13T04:56:54.537Z,2.99
2024-02-13T04:57:54.514Z,3.01
2024-02-13T04:58:54.483Z,3.01
2024-02-13T04:59:54.551Z,3.01
2024-02-13T05:00:54.511Z,2.99
2024-02-13T05:01:54.461Z,2.98
2024-02-13T05:02:54.456Z,2.99
2024-02-13T05:03:54.456Z,2.98
2024-02-13T05:04:54.419Z,2.99
2024-02-13T05:05:54.488Z,3.01
2024-02-13T05:06:54.403Z,2.99
2024-02-13T05:07:54.407Z,2.98
2024-02-13T05:08:54.412Z,2.98
2024-02-13T05:09:54.450Z,2.97
2024-02-13T05:10:54.374Z,2.98
2024-02-13T05:11:54.400Z,2.97
2024-02-13T05:12:54.334Z,2.99
2024-02-13T05:13:54.831Z,3.01
2024-02-13T05:14:54.336Z,3.01
2024-02-13T05:15:54.311Z,3.01
2024-02-13T05:16:54.297Z,2.99
2024-02-13T05:17:54.479Z,3.01
2024-02-13T05:18:54.346Z,2.99
2024-02-13T05:19:54.258Z,3.01
2024-02-13T05:20:54.340Z,3.04
2024-02-13T05:21:54.245Z,3.04
2024-02-13T05:22:54.217Z,3.02
2024-02-13T05:23:54.315Z,3.01
2024-02-13T05:24:54.205Z,2.99
2024-02-13T05:25:54.222Z,2.95
2024-02-13T05:26:54.203Z,2.90
2024-02-13T05:27:54.211Z,2.89
2024-02-13T05:28:55.587Z,2.87
2024-02-13T05:29:54.212Z,2.87
2024-02-13T05:30:54.156Z,2.84
2024-02-13T05:31:54.165Z,2.83
2024-02-13T05:32:54.198Z,2.80
2024-02-13T05:33:54.339Z,2.77
2024-02-13T05:34:54.090Z,2.76
2024-02-13T05:35:54.129Z,2.73
2024-02-13T05:36:54.096Z,2.68
2024-02-13T05:37:54.096Z,2.63
2024-02-13T05:38:54.144Z,2.61
2024-02-13T05:39:54.048Z,2.58
2024-02-13T05:40:54.038Z,2.58
2024-02-13T05:41:54.095Z,2.58
2024-02-13T05:42:54.027Z,2.61
2024-02-13T05:43:54.132Z,2.61
2024-02-13T05:44:53.995Z,2.59
2024-02-13T05:45:53.974Z,2.58
2024-02-13T05:46:53.971Z,2.55
2024-02-13T05:47:54.066Z,2.53
2024-02-13T05:48:54.009Z,2.50
2024-02-13T05:49:53.930Z,2.50
2024-02-13T05:50:53.936Z,2.48
2024-02-13T05:51:53.921Z,2.47
2024-02-13T05:52:53.993Z,2.47
2024-02-13T05:53:53.957Z,2.45
2024-02-13T05:54:53.903Z,2.48
2024-02-13T05:55:53.879Z,2.45
2024-02-13T05:56:53.960Z,2.48
2024-02-13T05:57:53.851Z,2.56
2024-02-13T05:58:53.835Z,2.61
2024-02-13T05:59:53.889Z,2.62
2024-02-13T06:00:53.981Z,2.62
2024-02-13T06:01:53.892Z,2.65
2024-02-13T06:02:53.940Z,2.66
2024-02-13T06:03:53.832Z,2.68
2024-02-13T06:04:53.769Z,2.66
2024-02-13T06:05:53.918Z,2.62
2024-02-13T06:06:53.901Z,2.61
2024-02-13T06:07:53.751Z,2.63
2024-02-13T06:08:53.847Z,2.62
2024-02-13T06:09:53.730Z,2.66
2024-02-13T06:10:53.723Z,2.71
2024-02-13T06:11:53.714Z,2.76
2024-02-13T06:12:53.677Z,2.77
2024-02-13T06:13:53.683Z,2.73
2024-02-13T06:14:53.784Z,2.71
2024-02-13T06:15:53.671Z,2.73
2024-02-13T06:16:53.641Z,2.76
2024-02-13T06:17:53.694Z,2.77
2024-02-13T06:18:53.799Z,2.76
2024-02-13T06:19:53.713Z,2.76
2024-02-13T06:20:53.686Z,2.74
2024-02-13T06:21:53.583Z,2.74
2024-02-13T06:22:53.578Z,2.74
2024-02-13T06:23:53.600Z,2.79
2024-02-13T06:24:53.557Z,2.81
2024-02-13T06:25:53.554Z,2.83
2024-02-13T06:26:56.066Z,2.86
2024-02-13T06:27:53.537Z,2.89
2024-02-13T06:28:53.531Z,2.90
2024-02-13T06:29:53.540Z,2.94
2024-02-13T06:30:53.483Z,2.97
2024-02-13T06:31:53.512Z,2.99
2024-02-13T06:32:53.649Z,2.99
2024-02-13T06:33:53.623Z,3.01
2024-02-13T06:34:53.490Z,3.07
2024-02-13T06:35:53.545Z,3.04
2024-02-13T06:36:53.440Z,3.05
2024-02-13T06:37:53.418Z,3.07
2024-02-13T06:38:53.516Z,3.05
2024-02-13T06:39:53.387Z,3.04
2024-02-13T06:40:53.389Z,3.08
2024-02-13T06:41:53.454Z,3.12
2024-02-13T06:42:53.374Z,3.12
2024-02-13T06:43:53.341Z,3.12
2024-02-13T06:44:53.443Z,3.12
2024-02-13T06:45:53.321Z,3.15
2024-02-13T06:46:53.364Z,3.15
2024-02-13T06:47:53.503Z,3.22
2024-02-13T06:48:53.423Z,3.23
2024-02-13T06:49:53.332Z,3.25
2024-02-13T06:50:53.332Z,3.23
2024-02-13T06:51:53.274Z,3.28
2024-02-13T06:52:53.331Z,3.31
2024-02-13T06:53:53.322Z,3.35
2024-02-13T06:54:53.230Z,3.35
2024-02-13T06:55:53.213Z,3.37
2024-02-13T06:56:53.247Z,3.35
2024-02-13T06:57:53.194Z,3.34
2024-02-13T06:58:53.187Z,3.34
2024-02-13T06:59:53.374Z,3.35
2024-02-13T07:00:53.243Z,3.37
2024-02-13T07:01:53.163Z,3.39
2024-02-13T07:02:53.198Z,3.46
2024-02-13T07:03:53.166Z,3.49
2024-02-13T07:04:53.114Z,3.50
2024-02-13T07:05:56.132Z,3.54
2024-02-13T07:07:02.972Z,3.57
2024-02-13T07:07:53.352Z,3.59
2024-02-13T07:08:53.235Z,3.64
2024-02-13T07:09:53.249Z,3.70
2024-02-13T07:10:53.063Z,3.75
2024-02-13T07:11:53.074Z,3.75
2024-02-13T07:12:53.026Z,3.77
2024-02-13T07:13:53.020Z,3.77
2024-02-13T07:14:53.198Z,3.77
2024-02-13T07:15:53.138Z,3.77
2024-02-13T07:16:52.997Z,3.75
2024-02-13T07:17:59.795Z,3.75
2024-02-13T07:18:53.198Z,3.75
2024-02-13T07:19:53.104Z,3.80
2024-02-13T07:20:53.169Z,3.81
2024-02-13T07:21:52.938Z,3.81
2024-02-13T07:22:53.003Z,3.81
2024-02-13T07:23:53.052Z,3.82
2024-02-13T07:24:52.940Z,3.84
2024-02-13T07:25:52.895Z,3.86
2024-02-13T07:26:53.071Z,3.88
2024-02-13T07:27:52.895Z,3.86
2024-02-13T07:28:52.855Z,3.86
2024-02-13T07:29:53.013Z,3.86
2024-02-13T07:30:52.840Z,3.89
2024-02-13T07:31:52.847Z,3.90
2024-02-13T07:32:53.021Z,3.95
2024-02-13T07:33:53.172Z,3.93
2024-02-13T07:34:52.931Z,3.99
2024-02-13T07:35:52.979Z,4.04
2024-02-13T07:36:52.766Z,4.06
2024-02-13T07:37:52.805Z,4.06
2024-02-13T07:38:52.854Z,4.08
2024-02-13T07:39:52.740Z,4.11
2024-02-13T07:40:52.759Z,4.13
2024-02-13T07:41:52.756Z,4.16
2024-02-13T07:42:52.735Z,4.18
2024-02-13T07:43:52.712Z,4.21
2024-02-13T07:44:52.825Z,4.24
2024-02-13T07:45:52.697Z,4.26
2024-02-13T07:46:52.674Z,4.32
2024-02-13T07:47:52.798Z,4.39
2024-02-13T07:48:52.726Z,4.43
2024-02-13T07:49:52.639Z,4.47
2024-02-13T07:50:52.633Z,4.50
2024-02-13T07:51:52.617Z,4.54
2024-02-13T07:52:52.622Z,4.54
2024-02-13T07:53:52.688Z,4.57
2024-02-13T07:54:52.578Z,4.53
2024-02-13T07:55:52.578Z,4.54
2024-02-13T07:56:52.600Z,4.51
2024-02-13T07:57:52.568Z,4.54
2024-02-13T07:58:52.532Z,4.56
2024-02-13T07:59:52.621Z,4.54
2024-02-13T08:00:52.534Z,4.56
2024-02-13T08:01:52.527Z,4.56
2024-02-13T08:02:52.769Z,4.59
2024-02-13T08:03:52.492Z,4.61
2024-02-13T08:04:52.580Z,4.65
2024-02-13T08:05:52.577Z,4.69
2024-02-13T08:06:52.538Z,4.71
2024-02-13T08:07:52.434Z,4.69
2024-02-13T08:08:52.484Z,4.71
2024-02-13T08:09:52.436Z,4.69
2024-02-13T08:10:52.404Z,4.69
2024-02-13T08:11:52.489Z,4.74
2024-02-13T08:12:52.371Z,4.75
2024-02-13T08:13:52.388Z,4.80
2024-02-13T08:14:52.390Z,4.83
2024-02-13T08:15:52.363Z,4.83
2024-02-13T08:16:52.366Z,4.79
2024-02-13T08:17:52.402Z,4.80
2024-02-13T08:18:52.556Z,4.83
2024-02-13T08:19:52.321Z,4.83
2024-02-13T08:20:52.374Z,4.83
2024-02-13T08:21:52.293Z,4.83
2024-02-13T08:22:52.285Z,4.87
2024-02-13T08:23:52.340Z,4.91
2024-02-13T08:24:52.252Z,4.91
2024-02-13T08:25:52.273Z,4.97
2024-02-13T08:26:52.254Z,5.02
2024-02-13T08:27:52.243Z,5.04
2024-02-13T08:28:52.199Z,5.08
2024-02-13T08:29:52.253Z,5.12
2024-02-13T08:30:52.198Z,5.12
2024-02-13T08:31:52.173Z,5.14
2024-02-13T08:32:52.302Z,5.23
2024-02-13T08:33:52.454Z,5.27
2024-02-13T08:34:52.347Z,5.35
2024-02-13T08:35:52.251Z,5.42
2024-02-13T08:36:52.141Z,5.52
2024-02-13T08:37:53.209Z,5.55
2024-02-13T08:38:52.192Z,5.51
2024-02-13T08:39:52.101Z,5.52
2024-02-13T08:40:52.096Z,5.51
2024-02-13T08:41:52.198Z,5.55
2024-02-13T08:42:52.092Z,5.58
2024-02-13T08:43:52.068Z,5.52
2024-02-13T08:44:52.040Z,5.56
2024-02-13T08:45:52.029Z,5.56
2024-02-13T08:46:52.005Z,5.58
2024-02-13T08:47:52.096Z,5.62
2024-02-13T08:48:52.234Z,5.62
2024-02-13T08:49:52.128Z,5.62
2024-02-13T08:50:52.069Z,5.65
2024-02-13T08:51:51.974Z,5.60
2024-02-13T08:52:51.953Z,5.62
2024-02-13T08:53:52.019Z,5.65
2024-02-13T08:54:51.923Z,5.67
2024-02-13T08:55:51.909Z,5.70
2024-02-13T08:56:51.927Z,5.75
2024-02-13T08:57:51.905Z,5.77
2024-02-13T08:58:51.884Z,5.80
2024-02-13T08:59:53.850Z,5.84
2024-02-13T09:00:51.875Z,5.88
2024-02-13T09:01:51.845Z,5.96
2024-02-13T09:02:51.861Z,6.03
2024-02-13T09:03:51.832Z,6.13
2024-02-13T09:04:51.925Z,6.20
2024-02-13T09:05:51.896Z,6.27
2024-02-13T09:06:51.878Z,6.25
2024-02-13T09:07:51.790Z,6.35
2024-02-13T09:08:51.821Z,6.38
2024-02-13T09:09:51.755Z,6.39
2024-02-13T09:10:51.750Z,6.45
2024-02-13T09:11:51.779Z,6.46
2024-02-13T09:12:51.745Z,6.46
2024-02-13T09:13:51.718Z,6.48
2024-02-13T09:14:51.721Z,6.45
2024-02-13T09:15:51.695Z,6.42
2024-02-13T09:16:51.692Z,6.43
2024-02-13T09:17:51.734Z,6.46
2024-02-13T09:18:51.859Z,6.50
2024-02-13T09:19:51.684Z,6.50
2024-02-13T09:20:51.701Z,6.48
2024-02-13T09:21:51.642Z,6.46
2024-02-13T09:22:51.651Z,6.45
2024-02-13T09:23:51.674Z,6.48
2024-02-13T09:24:53.481Z,6.45
2024-02-13T09:25:51.596Z,6.43
2024-02-13T09:26:51.646Z,6.43
2024-02-13T09:27:51.555Z,6.45
2024-02-13T09:28:51.551Z,6.40
2024-02-13T09:29:51.583Z,6.43
2024-02-13T09:30:51.533Z,6.45
2024-02-13T09:31:51.525Z,6.48
2024-02-13T09:32:51.571Z,6.46
2024-02-13T09:33:51.790Z,6.48
2024-02-13T09:34:51.564Z,6.50
2024-02-13T09:35:51.884Z,6.53
2024-02-13T09:36:51.463Z,6.54
2024-02-13T09:37:51.480Z,6.54
2024-02-13T09:38:51.460Z,6.55
2024-02-13T09:39:51.441Z,6.54
2024-02-13T09:40:52.049Z,6.54
2024-02-13T09:41:51.458Z,6.55
2024-02-13T09:42:51.402Z,6.55
2024-02-13T09:43:52.010Z,6.51
2024-02-13T09:44:51.423Z,6.55
2024-02-13T09:45:51.355Z,6.58
2024-02-13T09:46:51.345Z,6.64
2024-02-13T09:47:51.527Z,6.76
2024-02-13T09:48:51.460Z,6.79
2024-02-13T09:49:51.461Z,6.87
2024-02-13T09:50:51.339Z,6.87
2024-02-13T09:51:51.296Z,6.87
2024-02-13T09:52:51.292Z,6.87
2024-02-13T09:53:51.355Z,6.83
2024-02-13T09:54:51.288Z,6.82
2024-02-13T09:55:51.255Z,6.81
2024-02-13T09:56:51.300Z,6.83
2024-02-13T09:57:51.232Z,6.87
2024-02-13T09:58:51.225Z,6.90
2024-02-13T09:59:51.231Z,6.96
2024-02-13T10:00:51.221Z,7.05
2024-02-13T10:01:51.177Z,7.12
2024-02-13T10:02:51.266Z,7.21
2024-02-13T10:03:51.228Z,7.34
2024-02-13T10:04:51.213Z,7.34
2024-02-13T10:05:51.859Z,7.33
2024-02-13T10:06:51.190Z,7.23
2024-02-13T10:07:51.122Z,7.29
2024-02-13T10:08:51.296Z,7.37
2024-02-13T10:09:51.096Z,7.42
2024-02-13T10:10:51.101Z,7.42
2024-02-13T10:11:51.120Z,7.50
2024-02-13T10:12:51.114Z,7.55
2024-02-13T10:13:51.051Z,7.62
2024-02-13T10:14:51.089Z,7.66
2024-02-13T10:15:51.025Z,7.70
2024-02-13T10:16:51.038Z,7.70
2024-02-13T10:17:51.062Z,7.62
2024-02-13T10:18:51.141Z,7.67
2024-02-13T10:19:51.133Z,7.67
2024-02-13T10:20:51.021Z,7.58
2024-02-13T10:21:51.120Z,7.54
2024-02-13T10:22:51.077Z,7.51
2024-02-13T10:23:51.095Z,7.57
2024-02-13T10:24:50.929Z,7.55
2024-02-13T10:25:50.925Z,7.52
2024-02-13T10:26:50.958Z,7.47
2024-02-13T10:27:50.896Z,7.45
2024-02-13T10:28:50.907Z,7.47
2024-02-13T10:29:50.924Z,7.51
2024-02-13T10:30:50.880Z,7.71
2024-02-13T10:31:50.855Z,7.71
2024-02-13T10:32:51.089Z,7.69
2024-02-13T10:33:50.853Z,7.63
2024-02-13T10:34:50.861Z,7.62
2024-02-13T10:35:50.894Z,7.55
2024-02-13T10:36:50.806Z,7.58
2024-02-13T10:37:51.054Z,7.57
2024-02-13T10:38:50.984Z,7.52
2024-02-13T10:39:50.801Z,7.54
2024-02-13T10:40:50.770Z,7.54
2024-02-13T10:41:50.757Z,7.57
2024-02-13T10:42:50.761Z,7.58
2024-02-13T10:43:50.725Z,7.62
2024-02-13T10:44:50.774Z,7.60
2024-02-13T10:45:50.701Z,7.62
2024-02-13T10:46:50.967Z,7.67
2024-02-13T10:47:50.750Z,7.71
2024-02-13T10:48:50.825Z,7.74
2024-02-13T10:49:50.720Z,7.77
2024-02-13T10:50:50.712Z,7.77
2024-02-13T10:51:50.635Z,7.77
2024-02-13T10:52:50.625Z,7.82
2024-02-13T10:53:50.672Z,7.86
2024-02-13T10:54:50.664Z,7.86
2024-02-13T10:55:50.594Z,7.89
2024-02-13T10:56:50.769Z,7.94
2024-02-13T10:57:50.581Z,8.04
2024-02-13T10:58:50.572Z,8.07
2024-02-13T10:59:50.592Z,8.06
2024-02-13T11:00:50.580Z,8.06
2024-02-13T11:01:50.632Z,8.07
2024-02-13T11:02:50.533Z,8.13
2024-02-13T11:03:50.606Z,8.21
2024-02-13T11:04:50.707Z,8.31
2024-02-13T11:05:50.558Z,8.37
2024-02-13T11:06:50.551Z,8.47
2024-02-13T11:07:50.525Z,8.52
2024-02-13T11:08:50.485Z,8.58
2024-02-13T11:09:50.448Z,8.64
2024-02-13T11:10:50.432Z,8.71
2024-02-13T11:11:50.464Z,8.83
2024-02-13T11:12:50.427Z,8.89
2024-02-13T11:13:50.393Z,8.98
2024-02-13T11:14:50.483Z,9.00
2024-02-13T11:15:50.373Z,8.86
2024-02-13T11:16:50.372Z,8.83
2024-02-13T11:17:50.422Z,8.79
2024-02-13T11:18:50.689Z,8.73
2024-02-13T11:19:50.704Z,8.67
2024-02-13T11:20:50.356Z,8.65
2024-02-13T11:21:50.315Z,8.68
2024-02-13T11:22:50.305Z,8.67
2024-02-13T11:23:50.355Z,8.65
2024-02-13T11:24:50.907Z,8.65
2024-02-13T11:25:50.262Z,8.68
2024-02-13T11:26:50.312Z,8.68
2024-02-13T11:27:50.349Z,8.64
2024-02-13T11:28:50.241Z,8.54
2024-02-13T11:29:50.239Z,8.49
2024-02-13T11:30:50.213Z,8.50
2024-02-13T11:31:50.330Z,8.52
2024-02-13T11:32:50.270Z,8.57
2024-02-13T11:33:50.500Z,8.58
2024-02-13T11:34:50.339Z,8.63
2024-02-13T11:35:50.570Z,8.68
2024-02-13T11:36:50.569Z,8.67
2024-02-13T11:37:50.137Z,8.68
2024-02-13T11:38:50.143Z,8.76
2024-02-13T11:39:50.132Z,8.85
2024-02-13T11:40:50.137Z,8.91
2024-02-13T11:41:50.210Z,8.93
2024-02-13T11:42:50.098Z,8.96
2024-02-13T11:43:50.088Z,9.08
2024-02-13T11:44:50.647Z,9.16
2024-02-13T11:45:50.056Z,9.19
2024-02-13T11:46:50.039Z,9.22
2024-02-13T11:47:50.136Z,9.23
2024-02-13T11:48:50.106Z,9.26
2024-02-13T11:49:50.165Z,9.35
2024-02-13T11:50:50.053Z,9.41
2024-02-13T11:51:49.985Z,9.48
2024-02-13T11:52:49.961Z,9.42
2024-02-13T11:53:49.993Z,9.48
2024-02-13T11:54:50.024Z,9.48
2024-02-13T11:55:49.942Z,9.52
2024-02-13T11:56:49.947Z,9.52
2024-02-13T11:57:49.960Z,9.50
2024-02-13T11:58:49.913Z,9.48
2024-02-13T11:59:50.130Z,9.49
2024-02-13T12:00:50.005Z,9.48
2024-02-13T12:01:49.988Z,9.52
2024-02-13T12:02:49.957Z,9.50
2024-02-13T12:03:49.957Z,9.48
2024-02-13T12:04:49.924Z,9.45
2024-02-13T12:05:49.868Z,9.40
2024-02-13T12:06:49.898Z,9.35
2024-02-13T12:07:49.802Z,9.35
2024-02-13T12:08:49.904Z,9.32
2024-02-13T12:09:49.796Z,9.32
2024-02-13T12:10:49.767Z,9.35
2024-02-13T12:11:49.775Z,9.34
2024-02-13T12:12:49.738Z,9.35
2024-02-13T12:13:49.743Z,9.42
2024-02-13T12:14:49.776Z,9.42
2024-02-13T12:15:49.735Z,9.37
2024-02-13T12:16:49.694Z,9.34
2024-02-13T12:17:49.759Z,9.30
2024-02-13T12:18:49.803Z,9.30
2024-02-13T12:19:49.756Z,9.27
2024-02-13T12:20:49.669Z,9.37
2024-02-13T12:21:49.644Z,9.38
2024-02-13T12:22:49.640Z,9.38
2024-02-13T12:23:49.652Z,9.42
2024-02-13T12:24:49.605Z,9.45
2024-02-13T12:25:49.597Z,9.50
2024-02-13T12:26:49.622Z,9.52
2024-02-13T12:27:49.594Z,9.52
2024-02-13T12:28:49.563Z,9.53
2024-02-13T12:29:49.584Z,9.52
2024-02-13T12:30:49.577Z,9.44
2024-02-13T12:31:49.558Z,9.38
2024-02-13T12:32:49.733Z,9.40
2024-02-13T12:33:49.636Z,9.38
2024-02-13T12:34:50.647Z,9.40
2024-02-13T12:35:49.537Z,9.41
2024-02-13T12:36:49.552Z,9.42
2024-02-13T12:37:49.485Z,9.41
2024-02-13T12:38:49.472Z,9.40
2024-02-13T12:39:49.448Z,9.37
2024-02-13T12:40:49.458Z,9.32
2024-02-13T12:41:49.503Z,9.27
2024-02-13T12:42:49.417Z,9.27
2024-02-13T12:43:49.683Z,9.24
2024-02-13T12:44:49.912Z,9.24
2024-02-13T12:45:49.390Z,9.27
2024-02-13T12:46:49.405Z,9.24
2024-02-13T12:47:49.418Z,9.27
2024-02-13T12:48:49.599Z,9.31
2024-02-13T12:49:49.466Z,9.31
2024-02-13T12:50:49.406Z,9.31
2024-02-13T12:51:49.417Z,9.40
2024-02-13T12:52:49.321Z,9.44
2024-02-13T12:53:49.327Z,9.50
2024-02-13T12:54:49.277Z,9.50
2024-02-13T12:55:49.308Z,9.50
2024-02-13T12:56:49.301Z,9.50
2024-02-13T12:57:49.252Z,9.55
2024-02-13T12:58:49.233Z,9.58
2024-02-13T12:59:49.296Z,9.53
2024-02-13T13:00:49.436Z,9.53
2024-02-13T13:01:49.222Z,9.62
2024-02-13T13:02:49.234Z,9.63
2024-02-13T13:03:49.215Z,9.68
2024-02-13T13:04:49.189Z,9.67
2024-02-13T13:05:49.221Z,9.62
2024-02-13T13:06:49.204Z,9.62
2024-02-13T13:07:49.155Z,9.60
2024-02-13T13:08:56.827Z,9.63
2024-02-13T13:09:49.138Z,9.65
2024-02-13T13:10:49.109Z,9.71
2024-02-13T13:11:49.143Z,9.73
2024-02-13T13:12:49.082Z,9.73
2024-02-13T13:13:49.132Z,9.77
2024-02-13T13:14:49.107Z,9.75
2024-02-13T13:15:49.050Z,9.75
2024-02-13T13:16:49.062Z,9.77
2024-02-13T13:17:49.096Z,9.75
2024-02-13T13:18:49.383Z,9.80